Time;durP1;ratioP1;P1;durP2;ratioP2;P2;SDS_P1;SDS_P2;PMS_P1;PMS_P2;Temp;Humidity;BMP_temperature;BMP_pressure;BME280_temperature;BME280_humidity;BME280_pressure;Samples;Min_cycle;Max_cycle;Signal;HPM_P1;HPM_P2
2023/07/29 00:01:16;;;;;;;;;9.67;7.00;;;;;25.42;45.84;100618.38;146605;565;46020;-74
2023/07/29 00:04:21;;;;;;;;;8.75;7.00;;;;;25.40;45.89;100624.59;146610;620;47012;-75
2023/07/29 00:07:13;;;;;;;;;9.00;8.25;;;;;25.39;45.49;100625.47;146616;687;46028;-73
2023/07/29 00:10:11;;;;;;;;;8.50;6.50;;;;;25.37;45.59;100625.50;146611;628;46016;-72
2023/07/29 00:13:13;;;;;;;;;8.50;8.00;;;;;24.73;45.49;100530.62;146613;709;47015;-73
2023/07/29 00:16:11;;;;;;;;;7.00;6.33;;;;;25.24;46.08;100631.84;146613;577;46012;-72
2023/07/29 00:19:10;;;;;;;;;7.67;7.00;;;;;25.15;45.70;100626.63;146615;591;46020;-73
2023/07/29 00:22:05;;;;;;;;;7.75;7.75;;;;;25.03;45.92;100631.13;146610;574;47014;-73
2023/07/29 00:24:59;;;;;;;;;9.00;7.50;;;;;24.99;46.06;100633.84;146616;629;46020;-73
2023/07/29 00:28:04;;;;;;;;;8.00;7.00;;;;;24.99;45.86;100636.47;146610;604;47017;-73
2023/07/29 00:30:59;;;;;;;;;10.00;8.00;;;;;24.99;46.09;100626.75;146602;617;47014;-72
2023/07/29 00:34:04;;;;;;;;;6.25;6.25;;;;;24.97;45.83;100620.56;146608;594;48012;-72
2023/07/29 00:37:12;;;;;;;;;9.25;7.50;;;;;24.38;45.74;100521.22;146611;644;47012;-70
2023/07/29 00:40:14;;;;;;;;;9.67;6.00;;;;;24.98;45.33;100618.78;146613;655;46012;-71
2023/07/29 00:43:09;;;;;;;;;5.00;5.00;;;;;25.01;45.01;100616.97;146614;670;46021;-72
2023/07/29 00:46:07;;;;;;;;;8.67;8.33;;;;;25.03;45.41;100616.97;146612;629;46012;-73
2023/07/29 00:49:17;;;;;;;;;8.00;7.00;;;;;25.12;45.29;100623.09;146616;654;46010;-73
2023/07/29 00:52:17;;;;;;;;;7.75;6.75;;;;;25.20;44.72;100609.75;146609;626;47012;-73
2023/07/29 00:55:21;;;;;;;;;9.25;7.25;;;;;25.20;44.96;100612.41;146614;639;46020;-72
2023/07/29 00:58:18;;;;;;;;;8.67;8.67;;;;;25.12;45.30;100607.19;146611;638;46017;-72
2023/07/29 01:01:16;;;;;;;;;7.75;7.75;;;;;25.01;45.89;100614.31;146599;698;46036;-73
2023/07/29 01:04:12;;;;;;;;;8.67;8.67;;;;;24.93;46.36;100610.88;146610;588;46016;-74
2023/07/29 01:07:27;;;;;;;;;6.75;6.75;;;;;24.85;46.13;100615.38;146612;637;48010;-72
2023/07/29 01:10:50;;;;;;;;;7.50;7.50;;;;;24.76;45.93;100604.84;146608;680;46038;-72
2023/07/29 01:14:28;;;;;;;;;9.00;8.00;;;;;24.11;46.17;100499.38;146612;704;47010;-74
2023/07/29 01:17:36;;;;;;;;;9.67;8.67;;;;;24.71;46.93;100604.03;146610;632;46914;-72
2023/07/29 01:20:32;;;;;;;;;7.75;7.75;;;;;24.69;46.92;100603.16;146615;579;46021;-73
2023/07/29 01:23:33;;;;;;;;;6.67;6.67;;;;;24.70;46.66;100612.84;146609;570;47016;-73
2023/07/29 01:26:25;;;;;;;;;9.50;8.75;;;;;24.68;46.44;100606.72;146613;625;47020;-72
2023/07/29 01:29:28;;;;;;;;;8.25;6.75;;;;;24.66;46.62;100606.69;146604;691;48016;-73
2023/07/29 01:32:52;;;;;;;;;7.00;7.00;;;;;24.65;45.92;100612.91;146604;624;47010;-73
2023/07/29 01:36:12;;;;;;;;;7.75;7.00;;;;;24.63;45.92;100599.66;146607;609;47014;-74
2023/07/29 01:39:08;;;;;;;;;9.75;8.50;;;;;24.64;45.69;100604.09;146614;666;46020;-72
2023/07/29 01:42:03;;;;;;;;;7.67;7.67;;;;;24.66;45.19;100606.69;146608;605;47013;-74
2023/07/29 01:44:57;;;;;;;;;7.00;6.33;;;;;24.67;44.78;100603.16;146618;616;45020;-73
2023/07/29 01:48:02;;;;;;;;;6.75;6.25;;;;;24.73;44.47;100605.75;146614;725;46017;-73
2023/07/29 01:50:58;;;;;;;;;9.33;8.00;;;;;24.79;44.70;100599.53;146616;584;48020;-75
2023/07/29 01:54:10;;;;;;;;;6.33;6.33;;;;;24.86;44.65;100603.91;146611;569;47016;-77
2023/07/29 01:57:18;;;;;;;;;;;;;;;;;;;;;
2023/07/29 02:00:19;;;;;;;;;9.67;7.33;;;;;24.94;44.64;100609.97;146608;575;46016;-73
2023/07/29 02:03:28;;;;;;;;;8.75;8.25;;;;;24.40;44.78;100504.41;146603;614;47020;-73
2023/07/29 02:06:35;;;;;;;;;8.00;7.00;;;;;24.99;44.77;100599.34;146613;570;46012;-75
2023/07/29 02:09:30;;;;;;;;;7.00;7.00;;;;;25.00;45.12;100601.97;146615;597;47020;-74
2023/07/29 02:12:35;;;;;;;;;8.67;8.00;;;;;24.46;45.17;100500.00;146612;618;47012;-74
2023/07/29 02:15:29;;;;;;;;;6.67;5.67;;;;;25.06;44.95;100604.56;146617;578;46010;-90
2023/07/29 02:18:22;;;;;;;;;7.00;7.00;;;;;25.02;45.44;100597.53;146609;632;46014;-86
2023/07/29 02:21:26;;;;;;;;;10.00;8.00;;;;;24.98;45.17;100609.06;146614;571;46020;-87
2023/07/29 02:24:20;;;;;;;;;9.00;8.75;;;;;24.90;45.54;100605.63;146610;602;46012;-84
2023/07/29 02:27:22;;;;;;;;;8.00;8.00;;;;;24.83;45.96;100602.16;146616;657;46021;-74
2023/07/29 02:30:19;;;;;;;;;7.00;6.00;;;;;24.81;46.12;100609.22;146611;587;46016;-74
2023/07/29 02:33:20;;;;;;;;;9.00;7.67;;;;;24.82;45.62;100615.41;146601;675;47021;-71
2023/07/29 02:36:24;;;;;;;;;8.00;6.67;;;;;24.76;44.87;100611.03;146612;569;46016;-75
2023/07/29 02:39:23;;;;;;;;;7.00;7.00;;;;;24.69;44.80;100611.97;146615;583;46010;-73
2023/07/29 02:42:25;;;;;;;;;6.67;6.00;;;;;24.59;44.48;100615.59;146611;632;46914;-74
2023/07/29 02:45:20;;;;;;;;;8.00;6.25;;;;;24.46;45.36;100612.19;146615;603;46020;-75
2023/07/29 02:48:28;;;;;;;;;7.75;7.75;;;;;24.36;45.68;100606.03;146607;618;47014;-72
2023/07/29 02:51:20;;;;;;;;;7.75;7.75;;;;;24.27;45.90;100613.13;146614;609;48014;-74
2023/07/29 02:54:20;;;;;;;;;8.67;8.67;;;;;24.18;45.51;100607.03;146610;578;46035;-74
2023/07/29 02:57:23;;;;;;;;;9.67;8.33;;;;;24.16;45.76;100613.22;146610;588;46048;-75
2023/07/29 03:00:20;;;;;;;;;8.00;7.25;;;;;24.11;45.91;100625.59;146610;571;47014;-74
2023/07/29 03:03:14;;;;;;;;;7.00;7.00;;;;;24.07;45.88;100627.41;146604;572;47010;-74
2023/07/29 03:06:14;;;;;;;;;6.50;6.25;;;;;24.08;45.52;100625.62;146608;597;47016;-73
2023/07/29 03:09:09;;;;;;;;;8.75;8.50;;;;;24.06;45.75;100627.44;146615;643;46020;-73
2023/07/29 03:12:05;;;;;;;;;7.67;7.67;;;;;24.13;45.81;100634.44;146609;595;47016;-74
2023/07/29 03:15:02;;;;;;;;;8.00;7.00;;;;;24.20;45.47;100636.16;146615;598;47014;-74
2023/07/29 03:18:03;;;;;;;;;9.00;7.67;;;;;24.29;45.50;100644.03;146610;576;46014;-76
2023/07/29 03:20:59;;;;;;;;;8.25;8.25;;;;;24.34;45.21;100639.59;146615;722;47020;-78
2023/07/29 03:23:54;;;;;;;;;9.50;7.75;;;;;24.32;45.13;100645.81;146610;589;46914;-76
2023/07/29 03:26:48;;;;;;;;;7.00;6.25;;;;;24.29;45.29;100643.16;146615;573;46010;-76
2023/07/29 03:29:40;;;;;;;;;7.75;6.75;;;;;24.33;45.39;100650.19;146609;614;47012;-75
2023/07/29 03:32:41;;;;;;;;;7.75;7.75;;;;;24.35;45.11;100648.44;146604;564;46021;-76
2023/07/29 03:35:44;;;;;;;;;7.00;7.00;;;;;24.35;45.34;100654.59;146612;625;46016;-75
2023/07/29 03:38:40;;;;;;;;;6.00;6.00;;;;;24.36;45.39;100651.09;146615;617;47010;-76
2023/07/29 03:41:35;;;;;;;;;6.00;5.50;;;;;24.39;45.76;100661.66;146612;608;47012;-76
2023/07/29 03:44:27;;;;;;;;;9.00;8.00;;;;;24.38;46.02;100657.22;146616;565;47010;-75
2023/07/29 03:47:24;;;;;;;;;7.00;7.00;;;;;24.39;45.89;100651.06;146604;551;47014;-75
2023/07/29 03:50:29;;;;;;;;;9.75;8.50;;;;;24.45;46.03;100654.56;146612;659;47020;-76
2023/07/29 03:53:27;;;;;;;;;9.50;7.25;;;;;24.48;45.29;100657.22;146608;630;47016;-76
2023/07/29 03:56:25;;;;;;;;;7.00;7.00;;;;;24.49;44.47;100659.00;146616;569;46021;-78
2023/07/29 03:59:22;;;;;;;;;8.50;7.00;;;;;24.51;45.15;100655.41;146611;706;46016;-73
2023/07/29 04:02:17;;;;;;;;;6.50;6.50;;;;;24.60;45.84;100657.13;146604;582;46021;-74
2023/07/29 04:05:13;;;;;;;;;4.75;4.75;;;;;24.72;44.66;100659.69;146608;611;47012;-73
2023/07/29 04:08:07;;;;;;;;;7.00;5.50;;;;;24.83;44.72;100660.50;146616;568;46020;-75
2023/07/29 04:11:03;;;;;;;;;6.00;6.00;;;;;24.95;44.69;100658.59;146614;582;46916;-75
2023/07/29 04:14:03;;;;;;;;;8.00;7.00;;;;;25.03;44.00;100667.37;146618;590;46020;-73
2023/07/29 04:16:55;;;;;;;;;8.75;6.00;;;;;25.04;43.89;100666.47;146612;579;47017;-75
2023/07/29 04:20:01;;;;;;;;;6.33;5.67;;;;;25.04;44.59;100661.19;146617;670;46020;-75
2023/07/29 04:22:57;;;;;;;;;8.00;8.00;;;;;25.09;44.56;100672.62;146613;601;46016;-75
2023/07/29 04:25:52;;;;;;;;;5.50;5.50;;;;;25.15;44.21;100680.56;146606;576;46021;-75
2023/07/29 04:28:53;;;;;;;;;7.00;6.50;;;;;25.23;44.85;100688.44;146607;641;47915;-73
2023/07/29 04:31:45;;;;;;;;;8.75;7.50;;;;;25.32;45.03;100691.00;146600;646;47010;-75
2023/07/29 04:34:40;;;;;;;;;8.75;8.75;;;;;25.48;44.97;100697.03;146612;676;46016;-72
2023/07/29 04:37:36;;;;;;;;;11.75;9.50;;;;;25.65;45.28;100696.88;146614;614;47020;-72
2023/07/29 04:40:46;;;;;;;;;;;;;;;;;;;;;
2023/07/29 04:43:44;;;;;;;;;8.50;8.50;;;;;26.01;45.70;100703.53;146615;583;47014;-73
2023/07/29 04:46:38;;;;;;;;;7.00;7.00;;;;;26.26;44.11;100701.44;146608;572;47014;-73
2023/07/29 04:49:34;;;;;;;;;8.25;8.25;;;;;26.44;43.70;100689.69;146618;724;46010;-73
2023/07/29 04:52:34;;;;;;;;;7.33;6.67;;;;;26.60;42.92;100683.25;146612;660;46016;-73
2023/07/29 04:55:26;;;;;;;;;7.33;6.33;;;;;26.73;42.18;100689.28;146616;599;46020;-72
2023/07/29 04:58:26;;;;;;;;;6.33;6.00;;;;;26.81;42.06;100682.03;146613;577;46016;-71
2023/07/29 05:01:25;;;;;;;;;9.25;8.25;;;;;26.90;42.45;100679.22;146601;685;47020;-72
2023/07/29 05:04:36;;;;;;;;;8.67;8.00;;;;;27.06;43.30;100679.84;146607;591;48012;-72
2023/07/29 05:07:33;;;;;;;;;9.00;7.75;;;;;27.25;42.30;100669.78;146616;678;47010;-72
2023/07/29 05:10:31;;;;;;;;;9.25;6.75;;;;;27.51;41.52;100671.06;146611;678;46016;-73
2023/07/29 05:13:30;;;;;;;;;7.25;6.50;;;;;27.74;40.90;100676.81;146617;595;45580;-77
2023/07/29 05:16:27;;;;;;;;;8.67;8.67;;;;;27.94;41.43;100683.56;146610;631;47013;-76
2023/07/29 05:19:33;;;;;;;;;7.75;7.75;;;;;28.10;41.32;100679.69;146615;624;46020;-76
2023/07/29 21:59:39;;;;;;;;;8.50;7.50;;;;;25.71;51.28;100615.34;146705;597;45022;-86
2023/07/29 22:02:54;;;;;;;;;9.00;8.50;;;;;25.82;50.72;100617.03;146624;697;46017;-84
2023/07/29 22:05:49;;;;;;;;;7.67;7.00;;;;;25.72;50.86;100560.47;146631;710;46020;-84
2023/07/29 22:08:44;;;;;;;;;7.33;7.33;;;;;26.16;51.19;100606.81;146623;581;46016;-85
2023/07/29 22:11:40;;;;;;;;;9.00;8.00;;;;;26.29;51.12;100605.72;146628;662;47014;-84
2023/07/29 22:14:44;;;;;;;;;7.75;7.75;;;;;26.40;50.80;100595.78;146625;565;46012;-85
2023/07/29 22:17:42;;;;;;;;;9.67;8.00;;;;;26.47;50.42;100593.91;146629;581;46021;-84
2023/07/29 22:20:35;;;;;;;;;7.33;7.33;;;;;26.46;49.77;100594.81;146625;625;46016;-84
2023/07/29 22:23:28;;;;;;;;;10.25;9.25;;;;;26.45;49.86;100593.09;146629;565;46020;-84
2023/07/29 22:26:30;;;;;;;;;9.00;7.33;;;;;26.43;49.84;100584.25;146623;565;47012;-83
2023/07/29 22:29:37;;;;;;;;;7.67;7.67;;;;;26.46;50.04;100577.09;146628;563;46010;-84
2023/07/29 22:32:36;;;;;;;;;8.00;7.00;;;;;26.57;48.27;100595.53;146623;597;47012;-84
2023/07/29 22:35:33;;;;;;;;;6.00;6.00;;;;;26.55;48.83;100593.84;146625;618;47010;-85
2023/07/29 22:38:45;;;;;;;;;6.33;5.33;;;;;26.51;48.41;100590.31;146623;593;46017;-90
2023/07/29 22:41:57;;;;;;;;;8.33;7.00;;;;;26.49;48.27;100589.50;146629;579;46020;-84
2023/07/29 22:45:07;;;;;;;;;;;;;;;;;;;;;
2023/07/29 22:48:12;;;;;;;;;6.00;6.00;;;;;26.46;48.33;100586.84;146627;577;46010;-90
2023/07/29 22:51:05;;;;;;;;;8.33;7.33;;;;;26.47;47.56;100592.13;146622;571;47021;-89
2023/07/29 22:54:00;;;;;;;;;9.67;7.00;;;;;26.49;47.49;100592.16;146630;628;46010;-89
2023/07/29 22:57:09;;;;;;;;;6.67;6.67;;;;;26.49;47.12;100590.38;146625;586;46016;-88
2023/07/29 23:00:30;;;;;;;;;7.33;6.33;;;;;26.46;46.64;100586.84;146644;587;46010;-81
2023/07/29 23:03:58;;;;;;;;;8.00;8.00;;;;;25.71;47.46;100468.44;146642;602;45016;-82
2023/07/29 23:07:00;;;;;;;;;5.67;5.67;;;;;26.35;46.92;100588.78;146643;595;45010;-80
2023/07/29 23:09:55;;;;;;;;;7.33;7.00;;;;;26.30;47.42;100593.31;146640;624;45016;-82
2023/07/29 23:12:50;;;;;;;;;6.67;6.00;;;;;26.26;47.46;100582.75;146642;668;45027;-83
2023/07/29 23:16:00;;;;;;;;;6.67;6.67;;;;;26.22;47.42;100580.13;146636;576;45916;-83
2023/07/29 23:18:59;;;;;;;;;6.33;6.33;;;;;26.17;46.80;100572.25;146640;583;46010;-82
2023/07/29 23:21:55;;;;;;;;;7.00;6.00;;;;;26.18;47.26;100583.75;146643;596;45012;-82
2023/07/29 23:24:54;;;;;;;;;7.33;7.00;;;;;26.17;46.96;100576.69;146643;635;45020;-82
2023/07/29 23:27:53;;;;;;;;;9.33;8.00;;;;;26.17;46.06;100571.38;146638;588;45916;-86
2023/07/29 23:31:04;;;;;;;;;6.67;6.00;;;;;25.51;47.42;100463.38;146641;648;46010;-79
2023/07/29 23:33:56;;;;;;;;;6.00;6.00;;;;;26.14;46.30;100574.06;146642;579;46916;-78
2023/07/29 23:36:54;;;;;;;;;6.33;6.33;;;;;26.17;46.74;100574.03;146645;631;46028;-79
2023/07/29 23:40:01;;;;;;;;;7.00;6.00;;;;;25.05;47.35;100369.37;146641;718;45917;-79
2023/07/29 23:43:04;;;;;;;;;7.33;6.00;;;;;26.37;46.66;100571.06;146641;571;45020;-80
2023/07/29 23:46:06;;;;;;;;;5.67;5.67;;;;;26.46;46.53;100563.78;146640;613;45917;-80
2023/07/29 23:49:03;;;;;;;;;6.33;6.00;;;;;26.57;45.73;100571.63;146644;613;45014;-80
2023/07/29 23:52:07;;;;;;;;;7.33;6.33;;;;;26.57;46.02;100568.94;146641;602;45916;-92
2023/07/29 23:55:01;;;;;;;;;6.67;6.67;;;;;26.56;46.02;100567.22;146643;664;46014;-84
2023/07/29 23:57:59;;;;;;;;;7.00;6.00;;;;;26.59;46.45;100564.50;146630;587;47014;-86
